Wetterdaten: aktuell Sonntag, 19.08.2018 13:30
Datum Zeit Temp. A. Luft Gew. Boden Gew. Boden A. Feuchte A. Luftdruck Regen Wind Richtung Richtung Sonnenschein ET UV Solar Taupunkt Windchill Windben Empfang
19.08.2018 13:30 28.7 C 32.2 C 20.6 C 20.6 C 45 % 1020.5 hPa 0.0 l/m 2.3 km/h (1 Bft) SO 142 60 min 0.432 mm 5.4 UV-I 831 W/m 15.6 C 28.7 C 11.3 km/h (2 Bft) 99.15 %
19.08.2018 12:30 27.3 C 30.6 C 20.0 C 20.0 C 49 % 1021.1 hPa 0.0 l/m 1.8 km/h (1 Bft) O-NO 62 60 min 0.432 mm 4.3 UV-I 580 W/m 15.6 C 27.3 C 8.0 km/h (2 Bft) 100.00 %
19.08.2018 11:30 26.6 C 29.4 C 20.0 C 19.4 C 54 % 1021.6 hPa 0.0 l/m 0.8 km/h (0 Bft) O-NO 75 60 min 0.355 mm 4.0 UV-I 679 W/m 16.5 C 26.6 C 4.8 km/h (1 Bft) 99.15 %
19.08.2018 10:30 24.1 C 27.8 C 19.4 C 19.4 C 55 % 1022.0 hPa 0.0 l/m 0.1 km/h (0 Bft) N-NW 343 60 min 0.254 mm 2.9 UV-I 579 W/m 14.5 C 24.1 C 1.6 km/h (1 Bft) 94.17 %
19.08.2018 09:30 21.7 C 22.8 C 21.7 C 21.7 C 63 % 1022.0 hPa 0.0 l/m 0.2 km/h (0 Bft) W-SW 246 60 min 0.153 mm 1.7 UV-I 426 W/m 14.3 C 21.7 C 1.6 km/h (1 Bft) 94.87 %
19.08.2018 08:30 19.2 C 17.8 C 21.7 C 21.7 C 70 % 1021.7 hPa 0.0 l/m 2.1 km/h (1 Bft) W-SW 256 45 min 0.076 mm 0.8 UV-I 235 W/m 13.6 C 19.2 C 4.8 km/h (1 Bft) 97.44 %
19.08.2018 07:30 16.8 C 14.4 C 21.7 C 21.7 C 79 % 1021.6 hPa 0.0 l/m 0.0 km/h (0 Bft) W-SW 257 0 min 0.000 mm 0.0 UV-I 107 W/m 13.1 C 16.8 C 1.6 km/h (1 Bft) 97.44 %
19.08.2018 06:30 15.3 C 13.9 C 21.7 C 21.7 C 83 % 1021.4 hPa 0.0 l/m 0.0 km/h (0 Bft) W 259 0 min 0.000 mm 0.0 UV-I 10 W/m 12.4 C 15.3 C 0.0 km/h (0 Bft) 98.29 %
19.08.2018 05:30 15.6 C 14.4 C 21.7 C 21.7 C 84 % 1021.3 hPa 0.0 l/m 2.0 km/h (1 Bft) W 259 0 min 0.025 mm 0.0 UV-I 0 W/m 12.9 C 15.6 C 6.4 km/h (2 Bft) 97.44 %
19.08.2018 04:30 16.4 C 15.0 C 21.7 C 21.7 C 81 % 1021.5 hPa 0.0 l/m 0.0 km/h (0 Bft) NW 310 0 min 0.001 mm 0.0 UV-I 0 W/m 13.1 C 16.4 C 0.0 km/h (0 Bft) 97.44 %
19.08.2018 03:30 17.2 C 15.6 C 21.7 C 21.7 C 80 % 1021.6 hPa 0.0 l/m 0.0 km/h (0 Bft) NW 310 0 min 0.025 mm 0.0 UV-I 0 W/m 13.7 C 17.2 C 1.6 km/h (1 Bft) 99.15 %
19.08.2018 02:30 17.9 C 16.1 C 21.7 C 21.7 C 79 % 1021.7 hPa 0.0 l/m 0.0 km/h (0 Bft) NW 310 0 min 0.001 mm 0.0 UV-I 0 W/m 14.2 C 17.9 C 0.0 km/h (0 Bft) 98.29 %
19.08.2018 01:30 18.6 C 16.7 C 21.7 C 21.7 C 79 % 1021.9 hPa 0.0 l/m 0.0 km/h (0 Bft) NW 311 0 min 0.025 mm 0.0 UV-I 0 W/m 14.9 C 18.6 C 0.0 km/h (0 Bft) 97.44 %
19.08.2018 00:30 18.8 C 17.2 C 21.7 C 21.7 C 80 % 1021.8 hPa 0.0 l/m 0.3 km/h (0 Bft) W-SW 247 0 min 0.000 mm 0.0 UV-I 0 W/m 15.3 C 18.8 C 3.2 km/h (1 Bft) 97.44 %
18.08.2018 23:30 19.7 C 17.8 C 21.7 C 21.7 C 79 % 1021.6 hPa 0.0 l/m 0.0 km/h (0 Bft) N-NW 329 0 min 0.026 mm 0.0 UV-I 0 W/m 16.0 C 19.7 C 0.0 km/h (0 Bft) 98.29 %
18.08.2018 22:30 20.1 C 18.3 C 21.7 C 21.7 C 77 % 1021.4 hPa 0.0 l/m 0.1 km/h (0 Bft) N-NW 329 0 min 0.025 mm 0.0 UV-I 0 W/m 15.9 C 20.1 C 1.6 km/h (1 Bft) 96.58 %
18.08.2018 21:30 21.6 C 20.0 C 21.7 C 21.7 C 71 % 1021.0 hPa 0.0 l/m 0.0 km/h (0 Bft) N-NW 329 0 min 0.025 mm 0.0 UV-I 0 W/m 16.1 C 21.6 C 1.6 km/h (1 Bft) 98.29 %
18.08.2018 20:30 23.3 C 23.3 C 21.7 C 21.7 C 63 % 1020.4 hPa 0.0 l/m 0.4 km/h (0 Bft) N-NW 329 0 min 0.051 mm 0.0 UV-I 1 W/m 15.9 C 23.3 C 3.2 km/h (1 Bft) 100.00 %
18.08.2018 19:30 25.8 C 28.3 C 21.7 C 21.7 C 58 % 1019.8 hPa 0.0 l/m 4.2 km/h (1 Bft) N-NW 337 25 min 0.178 mm 0.0 UV-I 40 W/m 16.9 C 25.8 C 11.3 km/h (2 Bft) 97.50 %
18.08.2018 18:30 27.3 C 31.7 C 21.7 C 21.7 C 51 % 1019.7 hPa 0.0 l/m 5.3 km/h (1 Bft) NW 313 60 min 0.305 mm 0.7 UV-I 255 W/m 16.3 C 27.3 C 12.9 km/h (3 Bft) 95.73 %
18.08.2018 17:30 28.1 C 34.4 C 21.1 C 21.7 C 50 % 1019.7 hPa 0.0 l/m 1.2 km/h (1 Bft) O-NO 63 60 min 0.432 mm 1.4 UV-I 436 W/m 16.7 C 28.1 C 4.8 km/h (1 Bft) 98.29 %
18.08.2018 16:30 28.7 C 35.6 C 21.1 C 21.7 C 49 % 1019.9 hPa 0.0 l/m 6.0 km/h (2 Bft) W-SW 254 60 min 0.482 mm 2.6 UV-I 590 W/m 16.9 C 28.7 C 11.3 km/h (2 Bft) 100.00 %
18.08.2018 15:30 27.7 C 33.9 C 21.1 C 21.1 C 54 % 1020.5 hPa 0.0 l/m 9.0 km/h (2 Bft) W-SW 257 60 min 0.483 mm 3.9 UV-I 720 W/m 17.5 C 27.3 C 22.5 km/h (4 Bft) 97.46 %
18.08.2018 14:30 27.2 C 32.2 C 20.6 C 20.6 C 58 % 1020.8 hPa 0.0 l/m 5.3 km/h (1 Bft) W-SW 252 30 min 0.457 mm 4.7 UV-I 791 W/m 18.2 C 27.2 C 17.7 km/h (3 Bft) 95.61 %
18.08.2018 14:00 26.4 C 31.7 C 20.6 C 20.6 C 59 % 1021.0 hPa 0.0 l/m 5.9 km/h (2 Bft) N 350 0 min 0.000 mm 3.9 UV-I 391 W/m 17.7 C 26.4 C 12.9 km/h (3 Bft) 97.44 %
_ Min-Zeit 06:25 05:55 10:05 10:05 13:25 18:40 - 20:10 - - - - - - 06:20 06:25 20:10 10:45
Minimum _ 15.3 C 13.9 C 18.9 C 19.4 C 44 % 1019.5 hPa - 0.0 km/h (0 Bft) - - - - - - 12.3 C 15.3 C 0.0 km/h (0 Bft) 91.67 %
_ Max-Zeit 16:15 16:05 17:45 16:15 05:20 00:45 14:00 16:15 - - 14:00 15:05 13:20 14:35 14:35 16:30 15:30 16:00
Maximum _ 28.7 C 35.6 C 21.7 C 21.7 C 84 % 1022.0 hPa 0.0 l/m 9.2 km/h
SW (2 Bft)
- - 5 min 0.483 mm 5.5 UV-I 855 W/m 18.6 C 28.7 C 22.5 km/h
W-NW (4 Bft)
100.00 %
Durchschnitt _ 22.4 C 23.9 C 21.3 C 21.3 C 66 % 1021.1 hPa #0.0 l/m 1.7 km/h (1 Bft) W-SW - #5:45 h #1.829 mm 2.9 UV-I 420 W/m 15.4 C 22.4 C 5.6 km/h (1 Bft) 97.62 %